sensor_id;sensor_type;location;lat;lon;timestamp;temperature;humidity
55008;DHT22;40902;45.116;21.296;2023-04-23T00:02:10;384.10;2329.60
55008;DHT22;40902;45.116;21.296;2023-04-23T00:04:49;359.10;2329.60
55008;DHT22;40902;45.116;21.296;2023-04-23T01:27:50;384.00;2329.60
55008;DHT22;40902;45.116;21.296;2023-04-23T01:30:16;359.00;2329.60
55008;DHT22;40902;45.116;21.296;2023-04-23T01:32:42;359.00;2329.60
55008;DHT22;40902;45.116;21.296;2023-04-23T01:35:09;359.00;2329.60
55008;DHT22;40902;45.116;21.296;2023-04-23T01:37:35;359.00;2329.60
55008;DHT22;40902;45.116;21.296;2023-04-23T01:40:02;359.00;2329.60
55008;DHT22;40902;45.116;21.296;2023-04-23T01:42:28;358.90;2329.60
55008;DHT22;40902;45.116;21.296;2023-04-23T01:44:53;359.00;2329.60
55008;DHT22;40902;45.116;21.296;2023-04-23T01:47:19;358.90;2329.60
55008;DHT22;40902;45.116;21.296;2023-04-23T01:49:45;358.90;2329.60
55008;DHT22;40902;45.116;21.296;2023-04-23T01:52:11;358.90;2329.60
55008;DHT22;40902;45.116;21.296;2023-04-23T01:54:37;358.90;2329.60
55008;DHT22;40902;45.116;21.296;2023-04-23T01:57:02;358.90;2329.60
55008;DHT22;40902;45.116;21.296;2023-04-23T01:59:28;358.90;2329.60
55008;DHT22;40902;45.116;21.296;2023-04-23T02:01:54;358.90;2329.60
55008;DHT22;40902;45.116;21.296;2023-04-23T02:04:20;358.90;2329.60
55008;DHT22;40902;45.116;21.296;2023-04-23T02:06:47;358.90;2329.60
55008;DHT22;40902;45.116;21.296;2023-04-23T02:14:07;359.20;2329.60
55008;DHT22;40902;45.116;21.296;2023-04-23T02:16:33;359.00;2329.60
55008;DHT22;40902;45.116;21.296;2023-04-23T02:18:59;359.20;2329.60
55008;DHT22;40902;45.116;21.296;2023-04-23T02:21:26;358.90;2329.60
55008;DHT22;40902;45.116;21.296;2023-04-23T02:40:55;359.30;2329.60
55008;DHT22;40902;45.116;21.296;2023-04-23T02:43:20;359.10;2329.60
55008;DHT22;40902;45.116;21.296;2023-04-23T02:45:46;359.10;2329.60
55008;DHT22;40902;45.116;21.296;2023-04-23T02:48:12;359.00;2329.60
55008;DHT22;40902;45.116;21.296;2023-04-23T02:50:37;359.10;2329.60
55008;DHT22;40902;45.116;21.296;2023-04-23T03:24:46;359.20;2329.60
55008;DHT22;40902;45.116;21.296;2023-04-23T03:27:12;358.80;2329.60
55008;DHT22;40902;45.116;21.296;2023-04-23T03:29:38;358.80;2329.60
55008;DHT22;40902;45.116;21.296;2023-04-23T03:32:04;359.10;2329.60
55008;DHT22;40902;45.116;21.296;2023-04-23T03:34:29;358.90;2329.60
55008;DHT22;40902;45.116;21.296;2023-04-23T03:36:55;358.80;2329.60
55008;DHT22;40902;45.116;21.296;2023-04-23T03:39:21;358.70;2329.60
55008;DHT22;40902;45.116;21.296;2023-04-23T03:41:46;358.80;2329.60
55008;DHT22;40902;45.116;21.296;2023-04-23T03:44:12;358.80;2329.60
55008;DHT22;40902;45.116;21.296;2023-04-23T05:43:40;410.00;2355.20
55008;DHT22;40902;45.116;21.296;2023-04-23T05:48:32;410.10;2355.20
55008;DHT22;40902;45.116;21.296;2023-04-23T05:50:58;409.80;2355.20
55008;DHT22;40902;45.116;21.296;2023-04-23T05:53:24;409.70;2355.20
55008;DHT22;40902;45.116;21.296;2023-04-23T05:55:50;409.80;2355.20
55008;DHT22;40902;45.116;21.296;2023-04-23T05:58:15;409.80;2355.20
55008;DHT22;40902;45.116;21.296;2023-04-23T06:00:44;409.90;2355.20
55008;DHT22;40902;45.116;21.296;2023-04-23T06:03:09;410.00;2355.20
55008;DHT22;40902;45.116;21.296;2023-04-23T06:54:23;460.80;2380.80
55008;DHT22;40902;45.116;21.296;2023-04-23T06:56:49;436.00;2355.20
55008;DHT22;40902;45.116;21.296;2023-04-23T06:59:15;435.90;2355.20
55008;DHT22;40902;45.116;21.296;2023-04-23T07:01:41;435.90;2355.20
55008;DHT22;40902;45.116;21.296;2023-04-23T07:04:07;435.90;2355.20
55008;DHT22;40902;45.116;21.296;2023-04-23T07:06:33;436.00;2355.20
55008;DHT22;40902;45.116;21.296;2023-04-23T07:08:59;436.00;2355.20
55008;DHT22;40902;45.116;21.296;2023-04-23T07:11:25;436.10;2355.20
55008;DHT22;40902;45.116;21.296;2023-04-23T07:13:51;461.00;2380.80
55008;DHT22;40902;45.116;21.296;2023-04-23T07:16:17;460.80;2380.80
55008;DHT22;40902;45.116;21.296;2023-04-23T07:18:42;460.80;2380.80
55008;DHT22;40902;45.116;21.296;2023-04-23T07:21:08;460.90;2380.80
55008;DHT22;40902;45.116;21.296;2023-04-23T07:23:34;460.90;2380.80
55008;DHT22;40902;45.116;21.296;2023-04-23T07:26:00;460.90;2380.80
55008;DHT22;40902;45.116;21.296;2023-04-23T07:28:25;461.00;2380.80
55008;DHT22;40902;45.116;21.296;2023-04-23T07:30:51;461.20;2380.80
55008;DHT22;40902;45.116;21.296;2023-04-23T07:33:17;461.30;2380.80
55008;DHT22;40902;45.116;21.296;2023-04-23T07:35:43;461.30;2380.80
55008;DHT22;40902;45.116;21.296;2023-04-23T07:38:08;461.50;2380.80
55008;DHT22;40902;45.116;21.296;2023-04-23T07:40:35;461.60;2380.80
55008;DHT22;40902;45.116;21.296;2023-04-23T07:43:01;486.50;2380.80
55008;DHT22;40902;45.116;21.296;2023-04-23T07:45:27;461.60;2380.80
55008;DHT22;40902;45.116;21.296;2023-04-23T07:47:52;486.60;2380.80
55008;DHT22;40902;45.116;21.296;2023-04-23T07:50:18;461.70;2380.80
55008;DHT22;40902;45.116;21.296;2023-04-23T07:52:44;486.40;2380.80
55008;DHT22;40902;45.116;21.296;2023-04-23T07:55:10;486.50;2380.80
55008;DHT22;40902;45.116;21.296;2023-04-23T07:57:36;486.50;2380.80
55008;DHT22;40902;45.116;21.296;2023-04-23T08:00:02;486.60;2380.80
55008;DHT22;40902;45.116;21.296;2023-04-23T08:02:28;486.60;2380.80
55008;DHT22;40902;45.116;21.296;2023-04-23T08:04:53;486.70;2380.80
55008;DHT22;40902;45.116;21.296;2023-04-23T08:07:19;486.80;2380.80
55008;DHT22;40902;45.116;21.296;2023-04-23T08:09:45;486.90;2380.80
55008;DHT22;40902;45.116;21.296;2023-04-23T08:12:10;487.00;2380.80
55008;DHT22;40902;45.116;21.296;2023-04-23T08:14:36;487.10;2355.20
55008;DHT22;40902;45.116;21.296;2023-04-23T08:17:02;487.10;2380.80
55008;DHT22;40902;45.116;21.296;2023-04-23T08:19:27;487.20;2380.80
55008;DHT22;40902;45.116;21.296;2023-04-23T08:21:56;487.20;2278.40
55008;DHT22;40902;45.116;21.296;2023-04-23T08:24:22;487.30;2252.80
55008;DHT22;40902;45.116;21.296;2023-04-23T08:26:48;512.00;2252.80
55008;DHT22;40902;45.116;21.296;2023-04-23T08:29:14;487.30;2201.60
55008;DHT22;40902;45.116;21.296;2023-04-23T08:31:40;512.00;2150.40
55008;DHT22;40902;45.116;21.296;2023-04-23T08:34:05;512.00;2176.00
55008;DHT22;40902;45.116;21.296;2023-04-23T08:36:31;512.00;2124.80
55008;DHT22;40902;45.116;21.296;2023-04-23T08:38:57;512.00;2124.80
55008;DHT22;40902;45.116;21.296;2023-04-23T08:41:27;512.10;2150.40
55008;DHT22;40902;45.116;21.296;2023-04-23T08:44:11;512.20;2124.80
55008;DHT22;40902;45.116;21.296;2023-04-23T08:46:41;512.20;2073.60
55008;DHT22;40902;45.116;21.296;2023-04-23T08:49:13;512.20;2099.20
55008;DHT22;40902;45.116;21.296;2023-04-23T08:51:44;512.30;2124.80
55008;DHT22;40902;45.116;21.296;2023-04-23T08:54:15;512.40;2099.20
55008;DHT22;40902;45.116;21.296;2023-04-23T08:56:43;512.50;2099.20
55008;DHT22;40902;45.116;21.296;2023-04-23T08:59:10;512.60;2099.20
55008;DHT22;40902;45.116;21.296;2023-04-23T09:08:58;537.80;2022.40
55008;DHT22;40902;45.116;21.296;2023-04-23T09:11:26;512.90;2022.40
55008;DHT22;40902;45.116;21.296;2023-04-23T09:13:53;512.90;1971.20
55008;DHT22;40902;45.116;21.296;2023-04-23T09:16:20;537.80;1971.20
55008;DHT22;40902;45.116;21.296;2023-04-23T09:18:46;537.60;1971.20
55008;DHT22;40902;45.116;21.296;2023-04-23T09:26:06;537.80;1894.40
55008;DHT22;40902;45.116;21.296;2023-04-23T09:28:36;537.70;1920.00
55008;DHT22;40902;45.116;21.296;2023-04-23T09:33:33;537.90;1843.20
55008;DHT22;40902;45.116;21.296;2023-04-23T09:36:07;537.90;1843.20
55008;DHT22;40902;45.116;21.296;2023-04-23T09:38:34;537.90;1817.60
55008;DHT22;40902;45.116;21.296;2023-04-23T09:41:21;538.00;1792.00
55008;DHT22;40902;45.116;21.296;2023-04-23T09:43:47;538.00;1817.60
55008;DHT22;40902;45.116;21.296;2023-04-23T09:46:13;538.00;1740.80
55008;DHT22;40902;45.116;21.296;2023-04-23T09:48:42;538.00;1740.80
55008;DHT22;40902;45.116;21.296;2023-04-23T09:51:08;538.10;1766.40
55008;DHT22;40902;45.116;21.296;2023-04-23T09:53:43;538.20;1766.40
55008;DHT22;40902;45.116;21.296;2023-04-23T09:56:10;538.30;1817.60
55008;DHT22;40902;45.116;21.296;2023-04-23T18:13:43;487.00;1843.20
55008;DHT22;40902;45.116;21.296;2023-04-23T18:16:09;486.80;1843.20
55008;DHT22;40902;45.116;21.296;2023-04-23T18:18:35;486.80;1843.20
55008;DHT22;40902;45.116;21.296;2023-04-23T18:21:01;486.70;1843.20
55008;DHT22;40902;45.116;21.296;2023-04-23T18:23:27;486.60;1843.20
55008;DHT22;40902;45.116;21.296;2023-04-23T18:25:53;486.60;1843.20
55008;DHT22;40902;45.116;21.296;2023-04-23T18:28:19;486.50;1868.80
55008;DHT22;40902;45.116;21.296;2023-04-23T18:30:45;486.50;1868.80
55008;DHT22;40902;45.116;21.296;2023-04-23T18:35:46;461.70;1868.80
55008;DHT22;40902;45.116;21.296;2023-04-23T18:38:23;461.70;1894.40
55008;DHT22;40902;45.116;21.296;2023-04-23T18:40:50;461.70;1894.40
55008;DHT22;40902;45.116;21.296;2023-04-23T18:43:15;461.60;1894.40
55008;DHT22;40902;45.116;21.296;2023-04-23T18:45:41;461.60;1894.40
55008;DHT22;40902;45.116;21.296;2023-04-23T18:50:54;461.60;1920.00
55008;DHT22;40902;45.116;21.296;2023-04-23T18:53:22;461.60;1920.00
55008;DHT22;40902;45.116;21.296;2023-04-23T18:55:48;461.50;1920.00
55008;DHT22;40902;45.116;21.296;2023-04-23T18:58:13;461.50;1894.40
55008;DHT22;40902;45.116;21.296;2023-04-23T19:00:39;461.40;1894.40
55008;DHT22;40902;45.116;21.296;2023-04-23T19:03:06;461.40;1894.40
55008;DHT22;40902;45.116;21.296;2023-04-23T19:05:31;461.40;1894.40
55008;DHT22;40902;45.116;21.296;2023-04-23T19:07:57;461.30;1894.40
55008;DHT22;40902;45.116;21.296;2023-04-23T19:10:23;461.20;1920.00
55008;DHT22;40902;45.116;21.296;2023-04-23T19:12:48;461.30;1920.00
55008;DHT22;40902;45.116;21.296;2023-04-23T19:15:15;461.20;1920.00
55008;DHT22;40902;45.116;21.296;2023-04-23T19:17:42;461.20;1920.00
55008;DHT22;40902;45.116;21.296;2023-04-23T19:20:08;461.10;1920.00
55008;DHT22;40902;45.116;21.296;2023-04-23T19:22:36;461.00;1920.00
55008;DHT22;40902;45.116;21.296;2023-04-23T19:25:03;461.00;1920.00
55008;DHT22;40902;45.116;21.296;2023-04-23T19:27:29;461.00;1920.00
55008;DHT22;40902;45.116;21.296;2023-04-23T19:29:55;460.90;1920.00
55008;DHT22;40902;45.116;21.296;2023-04-23T19:32:21;460.90;1920.00
55008;DHT22;40902;45.116;21.296;2023-04-23T19:34:47;460.90;1945.60
55008;DHT22;40902;45.116;21.296;2023-04-23T19:37:12;460.80;1920.00
55008;DHT22;40902;45.116;21.296;2023-04-23T19:39:38;460.80;1945.60
55008;DHT22;40902;45.116;21.296;2023-04-23T19:42:04;460.80;1945.60
55008;DHT22;40902;45.116;21.296;2023-04-23T19:44:31;436.10;1945.60
55008;DHT22;40902;45.116;21.296;2023-04-23T19:46:57;436.10;1920.00
55008;DHT22;40902;45.116;21.296;2023-04-23T19:49:23;436.10;1945.60
55008;DHT22;40902;45.116;21.296;2023-04-23T19:51:51;436.10;1945.60
55008;DHT22;40902;45.116;21.296;2023-04-23T19:54:17;436.10;1945.60
55008;DHT22;40902;45.116;21.296;2023-04-23T19:56:43;436.00;1945.60
55008;DHT22;40902;45.116;21.296;2023-04-23T19:59:09;436.00;1971.20
55008;DHT22;40902;45.116;21.296;2023-04-23T20:01:38;436.00;1971.20
55008;DHT22;40902;45.116;21.296;2023-04-23T20:04:04;435.90;1996.80
55008;DHT22;40902;45.116;21.296;2023-04-23T20:06:32;435.90;1971.20
55008;DHT22;40902;45.116;21.296;2023-04-23T20:08:58;435.90;1971.20
55008;DHT22;40902;45.116;21.296;2023-04-23T20:11:33;435.80;1971.20
55008;DHT22;40902;45.116;21.296;2023-04-23T20:14:00;435.70;1971.20
55008;DHT22;40902;45.116;21.296;2023-04-23T20:16:25;435.70;1996.80
55008;DHT22;40902;45.116;21.296;2023-04-23T20:18:53;435.70;1996.80
55008;DHT22;40902;45.116;21.296;2023-04-23T20:21:21;435.70;1996.80
55008;DHT22;40902;45.116;21.296;2023-04-23T20:23:47;435.60;1996.80
55008;DHT22;40902;45.116;21.296;2023-04-23T20:26:15;435.60;1996.80
55008;DHT22;40902;45.116;21.296;2023-04-23T20:28:41;435.60;1996.80
55008;DHT22;40902;45.116;21.296;2023-04-23T20:31:07;435.60;1996.80
55008;DHT22;40902;45.116;21.296;2023-04-23T20:33:32;435.60;2022.40
55008;DHT22;40902;45.116;21.296;2023-04-23T20:35:58;435.60;1996.80
55008;DHT22;40902;45.116;21.296;2023-04-23T20:38:26;435.60;2022.40
55008;DHT22;40902;45.116;21.296;2023-04-23T20:40:55;435.60;2022.40
55008;DHT22;40902;45.116;21.296;2023-04-23T20:43:31;435.50;2022.40
55008;DHT22;40902;45.116;21.296;2023-04-23T20:45:58;435.50;2022.40
55008;DHT22;40902;45.116;21.296;2023-04-23T20:48:28;435.50;2048.00
55008;DHT22;40902;45.116;21.296;2023-04-23T20:50:55;435.40;2048.00
55008;DHT22;40902;45.116;21.296;2023-04-23T20:53:21;435.40;2048.00
55008;DHT22;40902;45.116;21.296;2023-04-23T20:55:47;435.40;2048.00
55008;DHT22;40902;45.116;21.296;2023-04-23T20:58:13;435.40;2073.60
55008;DHT22;40902;45.116;21.296;2023-04-23T21:00:38;435.30;2073.60
55008;DHT22;40902;45.116;21.296;2023-04-23T21:03:04;435.30;2073.60
55008;DHT22;40902;45.116;21.296;2023-04-23T21:05:30;435.30;2073.60
55008;DHT22;40902;45.116;21.296;2023-04-23T21:07:56;435.30;2099.20
55008;DHT22;40902;45.116;21.296;2023-04-23T21:10:22;435.30;2099.20
55008;DHT22;40902;45.116;21.296;2023-04-23T21:12:48;435.30;2099.20
55008;DHT22;40902;45.116;21.296;2023-04-23T21:15:14;435.20;2099.20
55008;DHT22;40902;45.116;21.296;2023-04-23T21:17:40;435.20;2124.80
55008;DHT22;40902;45.116;21.296;2023-04-23T21:20:07;435.20;2124.80
55008;DHT22;40902;45.116;21.296;2023-04-23T21:22:34;410.50;2124.80
55008;DHT22;40902;45.116;21.296;2023-04-23T21:25:01;410.50;2124.80
55008;DHT22;40902;45.116;21.296;2023-04-23T21:27:27;410.50;2150.40
55008;DHT22;40902;45.116;21.296;2023-04-23T21:29:54;410.40;2150.40
55008;DHT22;40902;45.116;21.296;2023-04-23T21:32:20;410.40;2150.40
55008;DHT22;40902;45.116;21.296;2023-04-23T21:34:46;410.40;2150.40
55008;DHT22;40902;45.116;21.296;2023-04-23T21:37:11;410.30;2150.40
55008;DHT22;40902;45.116;21.296;2023-04-23T21:39:37;410.30;2150.40
55008;DHT22;40902;45.116;21.296;2023-04-23T21:42:03;410.30;2176.00
55008;DHT22;40902;45.116;21.296;2023-04-23T21:44:29;410.30;2176.00
55008;DHT22;40902;45.116;21.296;2023-04-23T21:46:55;410.30;2176.00
55008;DHT22;40902;45.116;21.296;2023-04-23T21:49:21;410.20;2176.00
55008;DHT22;40902;45.116;21.296;2023-04-23T21:51:47;410.20;2176.00
55008;DHT22;40902;45.116;21.296;2023-04-23T21:54:14;410.10;2176.00
55008;DHT22;40902;45.116;21.296;2023-04-23T21:56:40;410.10;2176.00
55008;DHT22;40902;45.116;21.296;2023-04-23T21:59:06;410.10;2176.00
55008;DHT22;40902;45.116;21.296;2023-04-23T22:01:32;410.00;2176.00
55008;DHT22;40902;45.116;21.296;2023-04-23T22:03:58;410.00;2201.60
55008;DHT22;40902;45.116;21.296;2023-04-23T22:06:24;410.00;2201.60
55008;DHT22;40902;45.116;21.296;2023-04-23T22:08:50;410.00;2201.60
55008;DHT22;40902;45.116;21.296;2023-04-23T22:11:17;409.90;2201.60
55008;DHT22;40902;45.116;21.296;2023-04-23T22:13:43;409.90;2201.60
55008;DHT22;40902;45.116;21.296;2023-04-23T22:16:09;409.90;2201.60
55008;DHT22;40902;45.116;21.296;2023-04-23T22:18:36;409.90;2201.60
55008;DHT22;40902;45.116;21.296;2023-04-23T22:21:02;409.80;2201.60
55008;DHT22;40902;45.116;21.296;2023-04-23T22:23:28;409.80;2201.60
55008;DHT22;40902;45.116;21.296;2023-04-23T22:25:54;409.80;2201.60
55008;DHT22;40902;45.116;21.296;2023-04-23T22:28:20;409.80;2201.60
55008;DHT22;40902;45.116;21.296;2023-04-23T22:30:45;409.80;2201.60
55008;DHT22;40902;45.116;21.296;2023-04-23T22:33:11;409.70;2201.60
55008;DHT22;40902;45.116;21.296;2023-04-23T22:35:37;409.70;2201.60
55008;DHT22;40902;45.116;21.296;2023-04-23T22:38:03;409.70;2201.60
55008;DHT22;40902;45.116;21.296;2023-04-23T22:40:28;409.70;2201.60
55008;DHT22;40902;45.116;21.296;2023-04-23T22:42:54;409.70;2201.60
55008;DHT22;40902;45.116;21.296;2023-04-23T22:45:20;409.70;2201.60
55008;DHT22;40902;45.116;21.296;2023-04-23T22:47:46;409.70;2201.60
55008;DHT22;40902;45.116;21.296;2023-04-23T22:50:12;409.70;2201.60
55008;DHT22;40902;45.116;21.296;2023-04-23T22:52:37;409.60;2201.60
55008;DHT22;40902;45.116;21.296;2023-04-23T22:55:03;384.90;2176.00
55008;DHT22;40902;45.116;21.296;2023-04-23T22:57:29;384.80;2176.00
55008;DHT22;40902;45.116;21.296;2023-04-23T22:59:55;384.80;2176.00
55008;DHT22;40902;45.116;21.296;2023-04-23T23:02:20;384.80;2176.00
55008;DHT22;40902;45.116;21.296;2023-04-23T23:04:46;384.80;2176.00
55008;DHT22;40902;45.116;21.296;2023-04-23T23:07:12;384.90;2176.00
55008;DHT22;40902;45.116;21.296;2023-04-23T23:09:38;384.90;2176.00
55008;DHT22;40902;45.116;21.296;2023-04-23T23:12:04;384.80;2176.00
55008;DHT22;40902;45.116;21.296;2023-04-23T23:14:30;384.90;2176.00
55008;DHT22;40902;45.116;21.296;2023-04-23T23:16:57;384.90;2176.00
55008;DHT22;40902;45.116;21.296;2023-04-23T23:19:25;384.90;2176.00
55008;DHT22;40902;45.116;21.296;2023-04-23T23:21:55;384.90;2176.00
55008;DHT22;40902;45.116;21.296;2023-04-23T23:24:21;384.80;2201.60
55008;DHT22;40902;45.116;21.296;2023-04-23T23:26:48;384.80;2201.60
55008;DHT22;40902;45.116;21.296;2023-04-23T23:29:14;384.90;2201.60
55008;DHT22;40902;45.116;21.296;2023-04-23T23:31:39;384.80;2201.60
55008;DHT22;40902;45.116;21.296;2023-04-23T23:34:05;384.80;2201.60
55008;DHT22;40902;45.116;21.296;2023-04-23T23:36:31;384.80;2201.60
55008;DHT22;40902;45.116;21.296;2023-04-23T23:38:58;384.70;2201.60
55008;DHT22;40902;45.116;21.296;2023-04-23T23:41:24;384.70;2201.60
55008;DHT22;40902;45.116;21.296;2023-04-23T23:43:50;384.70;2201.60
55008;DHT22;40902;45.116;21.296;2023-04-23T23:46:16;384.70;2201.60
55008;DHT22;40902;45.116;21.296;2023-04-23T23:48:43;384.70;2201.60
55008;DHT22;40902;45.116;21.296;2023-04-23T23:51:10;384.70;2201.60
55008;DHT22;40902;45.116;21.296;2023-04-23T23:53:35;384.70;2227.20
55008;DHT22;40902;45.116;21.296;2023-04-23T23:56:01;384.60;2201.60
55008;DHT22;40902;45.116;21.296;2023-04-23T23:58:28;384.60;2227.20
